Time;durP1;ratioP1;P1;durP2;ratioP2;P2;SDS_P1;SDS_P2;PMS_P1;PMS_P2;Temp;Humidity;BMP_temperature;BMP_pressure;BME280_temperature;BME280_humidity;BME280_pressure;Samples;Min_cycle;Max_cycle;Signal;HPM_P1;HPM_P2
2022/07/08 00:01:58;;;;;;;13.75;2.70;;;;;;;15.79;63.06;102501.31;5072980;28;20482;-51
2022/07/08 00:04:25;;;;;;;18.55;2.50;;;;;;;15.68;63.32;102499.59;5010303;28;20595;-49
2022/07/08 00:06:52;;;;;;;14.48;2.70;;;;;;;15.71;63.10;102506.50;5010937;28;20404;-53
2022/07/08 00:09:19;;;;;;;15.68;2.58;;;;;;;15.68;63.43;102499.59;5043979;28;20044;-49
2022/07/08 00:11:46;;;;;;;14.98;2.50;;;;;;;15.68;63.48;102501.41;5072842;28;20041;-52
2022/07/08 00:14:13;;;;;;;14.82;2.60;;;;;;;15.65;63.44;102499.88;5072834;28;20048;-51
2022/07/08 00:16:40;;;;;;;17.38;2.70;;;;;;;15.62;63.63;102502.00;5072784;28;20136;-50
2022/07/08 00:19:07;;;;;;;16.58;2.55;;;;;;;15.68;63.88;102502.28;5072732;28;20490;-50
2022/07/08 00:21:34;;;;;;;13.15;2.40;;;;;;;15.56;63.95;102500.75;5072785;28;20059;-50
2022/07/08 00:24:01;;;;;;;16.58;3.05;;;;;;;15.61;63.79;102497.63;5072801;28;20127;-50
2022/07/08 00:26:28;;;;;;;14.50;2.85;;;;;;;15.60;63.81;102494.13;5073131;28;20049;-50
2022/07/08 00:28:54;;;;;;;18.10;2.72;;;;;;;15.59;64.13;102491.59;5076523;28;20049;-52
2022/07/08 00:31:21;;;;;;;14.98;2.47;;;;;;;15.61;64.10;102489.59;5075760;28;20056;-50
2022/07/08 00:33:48;;;;;;;16.17;2.45;;;;;;;15.61;63.72;102494.97;5076154;28;20555;-52
2022/07/08 00:36:15;;;;;;;16.67;2.53;;;;;;;15.58;63.67;102497.94;5076271;28;20114;-49
2022/07/08 00:38:42;;;;;;;13.20;2.42;;;;;;;15.56;64.05;102503.44;5076111;28;20094;-48
2022/07/08 00:41:08;;;;;;;17.73;3.25;;;;;;;15.48;64.21;102496.13;5076256;28;20053;-49
2022/07/08 00:43:40;;;;;;;16.10;2.38;;;;;;;15.49;64.17;102499.66;5076095;28;20049;-52
2022/07/08 00:46:08;;;;;;;17.08;2.85;;;;;;;15.47;64.27;102499.78;5075954;28;20429;-52
2022/07/08 00:48:36;;;;;;;17.50;2.53;;;;;;;15.54;64.25;102494.72;5075928;28;20113;-50
2022/07/08 00:51:06;;;;;;;19.40;2.67;;;;;;;15.52;64.27;102505.56;5076108;28;20110;-51
2022/07/08 00:53:35;;;;;;;12.82;2.20;;;;;;;15.53;64.64;102506.38;5075686;28;20533;-50
2022/07/08 00:56:03;;;;;;;15.07;2.65;;;;;;;15.65;64.61;102513.25;5075573;28;20449;-51
2022/07/08 00:58:31;;;;;;;14.15;2.53;;;;;;;15.62;64.28;102505.53;5075886;28;20498;-52
2022/07/08 01:00:59;;;;;;;13.40;3.00;;;;;;;15.59;64.21;102513.84;5075408;28;20051;-50
2022/07/08 01:03:27;;;;;;;14.60;2.50;;;;;;;15.60;63.62;102510.19;5075531;28;20064;-50
2022/07/08 01:05:53;;;;;;;15.75;2.53;;;;;;;15.68;63.51;102509.44;5075848;28;20052;-51
2022/07/08 01:08:20;;;;;;;15.68;2.90;;;;;;;15.67;63.67;102513.13;5075359;28;20435;-49
2022/07/08 01:10:47;;;;;;;10.75;2.28;;;;;;;15.56;64.27;102516.81;5075697;28;20048;-51
2022/07/08 01:13:14;;;;;;;16.15;2.33;;;;;;;15.66;63.86;102511.44;5075499;28;20040;-52
2022/07/08 01:15:43;;;;;;;13.82;2.70;;;;;;;15.63;63.77;102509.06;5075569;28;20044;-50
2022/07/08 01:18:20;;;;;;;17.05;2.50;;;;;;;15.53;64.01;102515.28;5075443;28;20044;-50
2022/07/08 01:20:46;;;;;;;17.95;2.42;;;;;;;15.60;63.50;102520.88;5075164;28;20467;-50
2022/07/08 01:23:13;;;;;;;11.02;2.40;;;;;;;15.48;63.89;102527.38;5075378;28;20090;-52
2022/07/08 01:25:40;;;;;;;18.73;2.80;;;;;;;15.49;64.05;102529.91;5075399;28;20093;-52
2022/07/08 01:28:06;;;;;;;15.43;2.65;;;;;;;15.32;64.34;102525.28;5075450;28;20075;-50
2022/07/08 01:30:33;;;;;;;10.63;2.33;;;;;;;15.35;64.16;102533.00;5073813;28;20040;-52
2022/07/08 01:33:00;;;;;;;17.25;2.72;;;;;;;15.40;64.44;102529.91;5075065;28;20041;-51
2022/07/08 01:35:26;;;;;;;15.75;2.70;;;;;;;15.34;64.44;102524.16;5074537;28;20383;-49
2022/07/08 01:37:54;;;;;;;13.93;2.53;;;;;;;15.42;64.29;102517.25;5075070;28;20076;-52
2022/07/08 01:40:20;;;;;;;15.85;2.50;;;;;;;15.43;64.00;102521.63;5075107;28;20044;-51
2022/07/08 01:42:47;;;;;;;16.05;2.70;;;;;;;15.35;64.22;102522.31;5075139;28;20036;-50
2022/07/08 01:45:15;;;;;;;23.33;2.95;;;;;;;15.28;64.94;102518.53;5068985;28;20068;-50
2022/07/08 01:47:41;;;;;;;11.55;2.42;;;;;;;15.27;64.86;102523.03;5054521;28;20562;-51
2022/07/08 01:50:08;;;;;;;13.00;2.47;;;;;;;15.25;64.80;102516.97;5071722;28;20177;-51
2022/07/08 01:52:36;;;;;;;19.50;2.42;;;;;;;15.33;64.80;102519.81;5074645;28;20098;-49
2022/07/08 01:55:04;;;;;;;17.05;2.60;;;;;;;15.27;65.35;102514.19;5074305;28;20075;-52
2022/07/08 01:57:31;;;;;;;19.65;3.00;;;;;;;15.33;65.00;102521.63;5074597;28;20036;-49
2022/07/08 01:59:58;;;;;;;15.30;2.20;;;;;;;15.21;65.53;102515.59;5074390;28;20095;-49
2022/07/08 02:02:24;;;;;;;11.23;2.45;;;;;;;15.24;65.25;102520.63;5074373;28;20036;-50
2022/07/08 02:04:52;;;;;;;18.13;3.05;;;;;;;15.33;64.53;102519.81;5073977;28;20401;-51
2022/07/08 02:07:18;;;;;;;17.48;2.60;;;;;;;15.30;64.92;102522.75;5074308;28;20440;-51
2022/07/08 02:09:45;;;;;;;13.93;2.55;;;;;;;15.39;64.83;102515.72;5074546;28;20367;-53
2022/07/08 02:12:19;;;;;;;14.75;2.45;;;;;;;15.31;64.75;102520.91;5074302;28;20071;-52
2022/07/08 02:14:52;;;;;;;17.13;2.55;;;;;;;15.34;64.20;102521.47;5074367;28;20040;-52
2022/07/08 02:17:21;;;;;;;15.38;2.70;;;;;;;15.40;64.21;102521.91;5074380;28;20551;-50
2022/07/08 02:19:49;;;;;;;17.63;2.50;;;;;;;15.36;64.21;102516.81;5074089;28;20498;-50
2022/07/08 02:22:16;;;;;;;15.25;2.58;;;;;;;15.25;64.22;102522.34;5074102;28;20044;-53
2022/07/08 02:24:43;;;;;;;14.40;2.47;;;;;;;15.22;64.42;102511.91;5074248;28;20106;-50
2022/07/08 02:27:10;;;;;;;11.55;2.58;;;;;;;15.33;65.06;102514.47;5073826;28;20048;-52
2022/07/08 02:29:36;;;;;;;13.07;3.05;;;;;;;15.55;64.39;102513.28;5073875;28;20071;-50
2022/07/08 02:32:04;;;;;;;21.90;2.97;;;;;;;15.25;64.72;102511.63;5073832;28;20383;-48
2022/07/08 02:34:31;;;;;;;19.92;3.10;;;;;;;15.28;65.60;102511.38;5073437;28;20478;-49
2022/07/08 02:36:58;;;;;;;21.60;2.88;;;;;;;15.33;65.48;102508.25;5073940;28;20059;-50
2022/07/08 02:39:24;;;;;;;20.98;2.80;;;;;;;15.41;65.39;102510.19;5074036;28;20409;-51
2022/07/08 02:41:51;;;;;;;13.45;2.80;;;;;;;15.29;65.65;102509.53;5072566;28;20066;-57
2022/07/08 02:44:18;;;;;;;18.85;2.90;;;;;;;15.46;65.52;102511.50;5073383;28;20064;-49
2022/07/08 02:46:47;;;;;;;16.75;2.95;;;;;;;15.52;65.22;102510.91;5073392;28;20072;-52
2022/07/08 02:49:14;;;;;;;16.58;3.55;;;;;;;15.46;65.68;102514.16;5073055;28;20418;-48
2022/07/08 02:51:40;;;;;;;20.52;3.40;;;;;;;15.36;66.02;102511.47;5073775;28;20426;-53
2022/07/08 02:54:07;;;;;;;17.00;3.15;;;;;;;15.12;66.80;102511.09;5073783;28;20482;-53
2022/07/08 02:56:35;;;;;;;20.77;3.85;;;;;;;15.16;66.69;102520.50;5072557;28;20049;-55
2022/07/08 02:59:03;;;;;;;15.45;3.13;;;;;;;15.13;66.75;102516.31;5073624;28;20071;-54
2022/07/08 03:01:30;;;;;;;13.95;2.95;;;;;;;15.26;67.48;102518.69;5073642;28;20110;-53
2022/07/08 03:03:57;;;;;;;18.73;3.40;;;;;;;15.38;66.86;102523.88;5072673;28;20041;-53
2022/07/08 03:06:24;;;;;;;13.55;2.90;;;;;;;15.28;67.39;102521.19;5073611;28;20483;-52
2022/07/08 03:08:51;;;;;;;16.17;3.40;;;;;;;15.28;67.34;102522.06;5073571;28;20052;-50
2022/07/08 03:11:17;;;;;;;19.17;3.10;;;;;;;15.26;67.67;102528.50;5073531;28;20055;-51
2022/07/08 03:13:44;;;;;;;16.27;3.25;;;;;;;15.18;67.69;102523.88;5073328;28;20453;-49
2022/07/08 03:16:11;;;;;;;14.40;3.00;;;;;;;15.14;68.14;102526.00;5072444;28;20040;-52
2022/07/08 03:18:37;;;;;;;16.63;3.60;;;;;;;15.14;68.25;102526.00;5073145;28;20047;-50
2022/07/08 03:21:04;;;;;;;20.10;3.63;;;;;;;15.23;67.91;102528.81;5073623;28;20050;-50
2022/07/08 03:23:31;;;;;;;16.30;3.28;;;;;;;15.30;67.48;102533.44;5071982;28;20044;-52
2022/07/08 03:25:58;;;;;;;14.07;2.80;;;;;;;15.16;68.03;102534.72;5073161;28;20383;-51
2022/07/08 03:28:27;;;;;;;18.35;2.85;;;;;;;15.20;67.75;102539.78;5073364;28;20044;-50
2022/07/08 03:30:55;;;;;;;13.25;3.20;;;;;;;15.27;67.98;102544.41;5072875;28;20127;-50
2022/07/08 03:33:22;;;;;;;17.75;2.92;;;;;;;15.27;67.51;102538.22;5073050;28;20547;-50
2022/07/08 03:35:49;;;;;;;23.05;3.10;;;;;;;15.27;68.01;102538.22;5073140;28;20098;-50
2022/07/08 03:38:17;;;;;;;15.60;3.10;;;;;;;15.29;67.66;102533.59;5072011;28;20041;-51
2022/07/08 03:43:30;;;;;;;17.55;3.15;;;;;;;15.06;68.71;102531.22;5072893;28;20493;-50
2022/07/08 03:45:57;;;;;;;21.50;3.33;;;;;;;15.00;68.00;102542.44;5069002;28;20075;-50
2022/07/08 03:48:26;;;;;;;16.58;3.38;;;;;;;15.11;67.93;102544.13;5056928;28;20044;-49
2022/07/08 03:50:53;;;;;;;16.27;3.40;;;;;;;15.05;67.94;102539.38;5073160;28;20060;-52
2022/07/08 03:53:20;;;;;;;15.02;3.40;;;;;;;14.94;68.19;102540.34;5072916;28;20447;-52
2022/07/08 03:55:46;;;;;;;19.73;3.15;;;;;;;15.09;67.75;102541.59;5073058;28;20470;-51
2022/07/08 03:58:13;;;;;;;14.00;2.95;;;;;;;15.17;67.85;102538.22;5072972;28;20040;-49
2022/07/08 04:00:40;;;;;;;18.40;2.83;;;;;;;15.05;67.98;102542.03;5073056;28;20099;-48
2022/07/08 04:03:06;;;;;;;14.82;2.60;;;;;;;14.93;67.44;102555.50;5075973;28;20051;-50
2022/07/08 04:05:33;;;;;;;15.63;2.90;;;;;;;14.90;67.80;102554.97;5076425;28;20052;-49
2022/07/08 04:08:00;;;;;;;17.35;2.63;;;;;;;14.90;67.76;102557.63;5075760;28;20040;-52
2022/07/08 04:10:26;;;;;;;14.32;2.72;;;;;;;14.84;68.45;102552.81;5076741;28;20045;-50
2022/07/08 04:12:53;;;;;;;21.25;2.92;;;;;;;14.89;68.00;102559.44;5076707;28;20052;-51
2022/07/08 04:15:20;;;;;;;18.80;3.17;;;;;;;14.75;68.36;102558.03;5076261;28;20474;-51
2022/07/08 04:17:46;;;;;;;18.52;2.72;;;;;;;14.87;68.38;102555.22;5076691;28;20478;-50
2022/07/08 04:20:13;;;;;;;21.90;2.80;;;;;;;14.79;68.46;102558.59;5076166;28;20052;-49
2022/07/08 04:22:40;;;;;;;21.38;3.17;;;;;;;14.94;67.91;102561.72;5076385;28;20048;-51
2022/07/08 04:25:07;;;;;;;18.23;3.15;;;;;;;14.85;68.54;102555.38;5076336;28;20040;-50
2022/07/08 04:27:34;;;;;;;26.23;3.35;;;;;;;14.91;68.16;102556.63;5076448;28;20058;-50
2022/07/08 04:30:01;;;;;;;11.68;2.95;;;;;;;14.94;68.60;102551.84;5076398;28;20076;-50
2022/07/08 04:32:28;;;;;;;21.00;2.92;;;;;;;15.05;68.11;102563.41;5075997;28;20487;-52
2022/07/08 04:34:58;;;;;;;20.50;2.80;;;;;;;15.03;68.02;102565.38;5076260;28;20086;-48
2022/07/08 04:37:26;;;;;;;19.45;3.17;;;;;;;15.12;67.36;102560.03;5076235;28;20040;-51
2022/07/08 04:39:53;;;;;;;24.50;3.25;;;;;;;15.05;67.97;102550.06;5076337;28;20044;-51
2022/07/08 04:42:20;;;;;;;22.25;3.30;;;;;;;14.92;67.76;102556.50;5076186;28;20052;-50
2022/07/08 04:44:47;;;;;;;16.40;3.00;;;;;;;14.81;67.74;102561.97;5075956;28;20079;-51
2022/07/08 04:47:14;;;;;;;23.42;3.22;;;;;;;14.66;68.34;102561.53;5075825;28;20040;-51
2022/07/08 04:49:41;;;;;;;13.93;3.28;;;;;;;14.69;68.23;102563.06;5076032;28;20049;-50
2022/07/08 04:52:08;;;;;;;14.13;2.90;;;;;;;14.77;69.01;102569.41;5075846;28;20048;-51
2022/07/08 04:54:37;;;;;;;18.67;3.38;;;;;;;14.96;68.51;102573.94;5075961;28;20063;-50
2022/07/08 04:57:05;;;;;;;20.45;3.17;;;;;;;14.81;68.11;102578.00;5075861;28;20049;-49
2022/07/08 04:59:33;;;;;;;18.60;3.75;;;;;;;14.72;68.18;102581.50;5075800;28;20040;-49
2022/07/08 05:01:59;;;;;;;18.33;3.72;;;;;;;14.87;68.94;102587.28;5075934;28;20055;-50
2022/07/08 05:04:27;;;;;;;25.38;3.80;;;;;;;15.10;67.13;102590.56;5074996;28;20048;-48
2022/07/08 05:06:54;;;;;;;19.38;4.18;;;;;;;14.98;68.88;102601.38;5075854;28;20113;-51
2022/07/08 05:09:21;;;;;;;19.17;3.25;;;;;;;14.90;68.23;102587.88;5075631;28;20056;-52
2022/07/08 05:11:48;;;;;;;22.83;2.95;;;;;;;14.77;67.82;102597.94;5075846;28;20061;-50
2022/07/08 05:14:14;;;;;;;16.40;4.07;;;;;;;14.73;68.34;102601.88;5075051;28;20048;-51
2022/07/08 05:16:43;;;;;;;15.45;3.28;;;;;;;14.78;67.86;102599.63;5075555;28;20098;-51
2022/07/08 05:19:10;;;;;;;16.73;3.10;;;;;;;14.71;68.28;102599.31;5075094;28;20063;-50
2022/07/08 05:21:37;;;;;;;22.08;3.40;;;;;;;14.69;68.55;102603.97;5075541;28;20052;-51
2022/07/08 05:24:06;;;;;;;20.27;3.30;;;;;;;14.66;68.88;102603.38;5075282;28;20079;-49
2022/07/08 05:26:33;;;;;;;22.80;3.50;;;;;;;14.77;68.82;102605.94;5075288;28;20064;-52
2022/07/08 05:29:00;;;;;;;16.42;3.40;;;;;;;14.73;68.93;102600.03;5075368;28;20053;-50
2022/07/08 05:31:27;;;;;;;14.88;3.40;;;;;;;14.73;68.50;102608.03;5073815;28;20090;-49
2022/07/08 05:33:54;;;;;;;15.70;3.28;;;;;;;14.72;68.59;102611.72;5074066;28;20041;-51
2022/07/08 05:36:21;;;;;;;20.00;3.38;;;;;;;14.73;68.79;102609.88;5074839;28;20055;-50
2022/07/08 05:38:48;;;;;;;20.70;3.38;;;;;;;14.90;68.31;102609.25;5075048;28;20075;-51
2022/07/08 05:41:14;;;;;;;20.63;3.22;;;;;;;15.09;67.96;102615.59;5074944;28;20446;-51
2022/07/08 05:43:41;;;;;;;18.40;3.60;;;;;;;15.12;67.35;102615.34;5074671;28;20498;-51
2022/07/08 05:46:08;;;;;;;22.25;3.60;;;;;;;15.24;66.94;102611.53;5072521;28;20375;-52
2022/07/08 05:48:34;;;;;;;21.42;3.60;;;;;;;15.46;66.96;102615.78;5075399;28;20513;-51
2022/07/08 05:51:02;;;;;;;17.05;3.70;;;;;;;15.42;65.77;102611.69;5074531;28;20051;-50
2022/07/08 05:53:29;;;;;;;19.50;3.80;;;;;;;15.48;65.93;102602.25;5074059;28;20041;-53
2022/07/08 05:55:56;;;;;;;25.77;4.60;;;;;;;15.57;65.91;102612.09;5074477;28;20132;-51
2022/07/08 05:58:22;;;;;;;18.33;3.90;;;;;;;15.48;65.65;102618.28;5074575;28;20068;-53
2022/07/08 06:00:49;;;;;;;14.93;3.90;;;;;;;15.42;65.09;102621.53;5074334;28;20051;-51
2022/07/08 06:03:16;;;;;;;22.48;4.35;;;;;;;15.45;65.13;102615.91;5074530;28;20045;-53
2022/07/08 06:05:42;;;;;;;25.20;4.57;;;;;;;15.60;65.62;102629.72;5074162;28;20048;-52
2022/07/08 06:08:09;;;;;;;21.45;4.28;;;;;;;15.71;66.21;102633.06;5074371;28;20048;-52
2022/07/08 06:10:36;;;;;;;26.38;4.53;;;;;;;15.79;64.79;102631.53;5074315;28;20055;-53
2022/07/08 06:13:02;;;;;;;19.38;4.35;;;;;;;15.66;64.26;102624.66;5073469;28;20052;-52
2022/07/08 06:15:29;;;;;;;18.42;2.83;;;;;;;15.49;62.33;102626.19;5074425;28;20068;-52
2022/07/08 06:17:56;;;;;;;19.08;2.75;;;;;;;15.41;61.65;102628.72;5073874;28;20058;-52
2022/07/08 06:20:23;;;;;;;17.92;3.25;;;;;;;15.53;62.61;102632.09;5073632;28;20386;-52
2022/07/08 06:22:50;;;;;;;16.23;3.17;;;;;;;15.51;61.63;102636.75;5073003;28;20048;-53
2022/07/08 06:25:17;;;;;;;13.38;2.60;;;;;;;15.63;62.53;102634.78;5073294;28;20092;-52
2022/07/08 06:27:44;;;;;;;15.57;3.17;;;;;;;15.69;60.79;102644.91;5073754;28;20040;-49
2022/07/08 06:30:13;;;;;;;13.18;2.30;;;;;;;15.67;59.54;102646.88;5073376;28;20517;-50
2022/07/08 06:32:40;;;;;;;14.98;2.42;;;;;;;15.62;59.19;102641.09;5073807;28;20075;-49
2022/07/08 06:35:08;;;;;;;10.73;2.22;;;;;;;15.59;59.49;102642.25;5073994;28;20068;-53
2022/07/08 06:37:34;;;;;;;17.00;2.40;;;;;;;15.71;59.23;102642.94;5073877;28;20045;-49
2022/07/08 06:40:02;;;;;;;13.45;2.38;;;;;;;15.82;59.46;102644.66;5074070;28;20044;-51
2022/07/08 06:42:29;;;;;;;13.27;2.85;;;;;;;15.86;59.17;102646.91;5073704;28;20177;-49
2022/07/08 06:44:56;;;;;;;14.02;3.42;;;;;;;15.98;60.20;102649.44;5073594;28;20113;-49
2022/07/08 06:47:23;;;;;;;23.48;4.63;;;;;;;16.13;59.95;102647.97;5073507;28;20602;-49
2022/07/08 06:49:52;;;;;;;18.33;4.70;;;;;;;16.34;59.33;102644.28;5073476;28;20440;-50
2022/07/08 06:52:21;;;;;;;12.73;3.35;;;;;;;16.25;58.59;102649.50;5073569;28;20055;-50
2022/07/08 06:54:48;;;;;;;11.40;2.83;;;;;;;16.24;59.20;102653.16;5068929;28;20032;-50
2022/07/08 06:57:15;;;;;;;14.60;2.85;;;;;;;16.41;59.15;102659.63;5067107;28;20044;-49
2022/07/08 06:59:41;;;;;;;15.68;2.78;;;;;;;16.37;59.35;102652.88;5086423;28;20044;-49
2022/07/08 07:02:28;;;;;;;14.98;2.65;;;;;;;16.40;59.54;102665.09;5087150;28;20036;-49
2022/07/08 07:04:55;;;;;;;14.48;2.80;;;;;;;16.39;59.35;102658.06;5070226;28;20032;-50
2022/07/08 07:07:21;;;;;;;13.50;2.47;;;;;;;16.42;59.11;102663.13;5084694;28;20045;-51
2022/07/08 07:09:48;;;;;;;17.27;3.47;;;;;;;16.46;58.82;102667.19;5054709;28;20668;-52
2022/07/08 07:12:15;;;;;;;11.82;3.85;;;;;;;16.46;58.38;102661.84;5057976;28;20052;-50
2022/07/08 07:14:43;;;;;;;17.35;4.50;;;;;;;16.56;57.90;102667.19;5072874;28;20044;-50
2022/07/08 07:17:09;;;;;;;21.35;4.40;;;;;;;16.51;58.21;102667.59;5071215;28;20445;-49
2022/07/08 07:19:36;;;;;;;17.02;3.63;;;;;;;16.56;58.68;102659.16;5078944;28;20054;-46
2022/07/08 07:22:04;;;;;;;19.25;4.30;;;;;;;16.63;58.78;102669.13;5075557;28;20052;-46
2022/07/08 07:24:31;;;;;;;16.88;3.70;;;;;;;16.82;58.16;102670.03;5064504;28;20052;-52
2022/07/08 07:26:58;;;;;;;12.73;3.30;;;;;;;16.64;59.47;102672.63;5071308;28;20051;-49
2022/07/08 07:29:24;;;;;;;18.65;3.03;;;;;;;16.60;58.95;102676.59;5078564;28;20032;-49
2022/07/08 07:31:51;;;;;;;54.55;26.27;;;;;;;16.66;58.28;102671.50;5076460;28;20052;-49
2022/07/08 07:34:18;;;;;;;22.80;3.92;;;;;;;16.86;57.50;102674.97;5071932;28;20041;-49
2022/07/08 07:36:44;;;;;;;17.48;4.13;;;;;;;16.86;57.12;102676.78;5070053;28;20441;-49
2022/07/08 07:39:11;;;;;;;19.95;4.80;;;;;;;16.67;58.04;102680.38;5075083;28;20444;-48
2022/07/08 07:41:38;;;;;;;27.73;4.00;;;;;;;16.71;57.83;102671.06;5081462;28;20609;-48
2022/07/08 07:44:05;;;;;;;18.20;3.30;;;;;;;16.63;56.97;102669.13;5075908;28;20040;-48
2022/07/08 07:46:32;;;;;;;13.32;3.83;;;;;;;16.55;57.50;102679.72;5075398;28;20048;-48
2022/07/08 07:48:59;;;;;;;13.85;4.60;;;;;;;16.60;57.06;102664.03;5081661;28;20060;-45
2022/07/08 07:51:26;;;;;;;18.45;4.97;;;;;;;16.75;57.10;102660.88;5086900;28;20067;-45
2022/07/08 07:53:55;;;;;;;15.77;3.45;;;;;;;16.65;56.57;102666.28;5091529;28;20071;-45
2022/07/08 07:56:23;;;;;;;15.18;2.92;;;;;;;16.87;57.46;102667.78;5069146;28;20045;-48
2022/07/08 07:58:50;;;;;;;23.50;4.10;;;;;;;16.89;57.25;102665.78;5069409;28;20075;-47
2022/07/08 08:01:16;;;;;;;23.98;5.00;;;;;;;16.88;57.15;102670.31;5074417;28;20044;-47
2022/07/08 08:03:43;;;;;;;16.92;3.75;;;;;;;16.93;57.56;102671.69;5068968;28;20049;-45
2022/07/08 08:06:10;;;;;;;15.00;3.30;;;;;;;17.08;57.62;102671.03;5068352;28;20909;-45
2022/07/08 08:08:37;;;;;;;13.90;3.20;;;;;;;17.02;57.46;102665.44;5067250;28;20041;-44
2022/07/08 08:11:03;;;;;;;17.60;2.90;;;;;;;17.07;56.94;102666.66;5070056;28;20053;-45
2022/07/08 08:13:30;;;;;;;12.88;2.88;;;;;;;17.15;56.90;102671.28;5068347;28;20048;-47
2022/07/08 08:15:57;;;;;;;21.98;4.47;;;;;;;17.23;57.30;102674.06;5072321;28;20033;-48
2022/07/08 08:18:24;;;;;;;17.67;2.95;;;;;;;17.28;57.54;102681.63;5071577;28;20048;-45
2022/07/08 08:20:51;;;;;;;17.58;3.22;;;;;;;17.42;56.63;102674.91;5077292;28;20459;-47
2022/07/08 08:23:18;;;;;;;18.30;3.33;;;;;;;17.55;55.82;102683.41;5084733;28;20040;-46
2022/07/08 08:25:46;;;;;;;15.45;3.05;;;;;;;17.41;56.05;102682.13;5059372;28;20109;-50
2022/07/08 08:28:13;;;;;;;27.10;3.55;;;;;;;17.28;56.25;102681.63;5058634;28;20051;-47
2022/07/08 08:30:40;;;;;;;15.40;2.80;;;;;;;17.34;55.59;102678.38;5066205;28;20140;-47
2022/07/08 08:33:06;;;;;;;13.35;3.00;;;;;;;17.32;55.84;102682.16;5057599;28;20176;-45
2022/07/08 08:35:33;;;;;;;14.20;2.95;;;;;;;17.26;55.14;102681.81;5064874;28;20065;-47
2022/07/08 08:38:00;;;;;;;10.95;2.65;;;;;;;17.38;54.54;102674.38;5062083;28;20080;-47
2022/07/08 08:40:27;;;;;;;17.85;2.80;;;;;;;17.50;55.68;102682.19;5078540;28;20051;-46
2022/07/08 08:42:54;;;;;;;20.30;2.90;;;;;;;17.72;54.68;102676.38;5063854;28;20037;-46
2022/07/08 08:45:20;;;;;;;15.98;3.03;;;;;;;17.88;55.49;102673.00;5064304;28;20094;-47
2022/07/08 08:47:50;;;;;;;14.55;3.00;;;;;;;17.80;55.98;102671.06;5071666;28;20561;-46
2022/07/08 08:53:04;;;;;;;17.30;3.03;;;;;;;17.68;55.27;102664.25;5076357;28;20071;-48
2022/07/08 08:55:33;;;;;;;14.55;2.70;;;;;;;17.67;56.66;102665.25;5071040;28;20058;-50
2022/07/08 08:58:02;;;;;;;19.65;2.88;;;;;;;17.72;55.53;102678.19;5070688;28;20478;-48
2022/07/08 09:00:31;;;;;;;13.95;2.80;;;;;;;17.70;55.93;102674.81;5065447;28;20044;-51
2022/07/08 09:02:59;;;;;;;17.95;2.63;;;;;;;17.61;56.08;102672.09;5083500;28;20131;-51
2022/07/08 09:05:26;;;;;;;13.82;2.90;;;;;;;17.81;55.55;102670.09;5063409;28;20043;-47
2022/07/08 09:07:54;;;;;;;15.25;3.00;;;;;;;17.92;54.83;102673.53;5060773;28;20379;-45
2022/07/08 09:10:21;;;;;;;15.55;3.00;;;;;;;18.09;55.05;102678.03;5065212;28;20052;-48
2022/07/08 09:13:10;;;;;;;16.92;3.33;;;;;;;18.24;53.76;102678.31;5087737;28;20044;-45
2022/07/08 09:15:42;;;;;;;20.63;2.90;;;;;;;18.38;53.21;102674.22;5060989;28;20040;-44
2022/07/08 09:18:11;;;;;;;16.13;2.88;;;;;;;18.48;54.71;102676.78;5068599;28;20048;-45
2022/07/08 09:20:39;;;;;;;20.40;2.75;;;;;;;18.59;53.47;102685.41;5060525;28;20049;-44
2022/07/08 09:23:13;;;;;;;16.85;3.20;;;;;;;18.78;52.65;102673.56;5072134;28;20036;-44
2022/07/08 09:25:40;;;;;;;64.93;20.35;;;;;;;18.98;53.69;102670.66;5067624;28;20128;-45
2022/07/08 09:28:08;;;;;;;17.33;3.30;;;;;;;19.01;52.13;102682.91;5065306;28;20501;-47
2022/07/08 09:30:34;;;;;;;18.65;3.20;;;;;;;19.34;51.38;102676.63;5083082;28;20040;-45
2022/07/08 09:33:03;;;;;;;20.83;3.75;;;;;;;19.31;51.02;102685.03;5076068;28;20036;-45
2022/07/08 09:35:32;;;;;;;17.80;3.63;;;;;;;19.48;51.41;102677.84;5056158;28;20052;-45
2022/07/08 09:38:08;;;;;;;17.75;3.75;;;;;;;19.52;50.30;102683.72;5060775;28;20064;-45
2022/07/08 09:40:36;;;;;;;14.98;3.78;;;;;;;19.48;50.12;102677.84;5064838;28;20666;-44
2022/07/08 09:43:12;;;;;;;13.88;3.30;;;;;;;19.68;49.97;102666.72;5074117;28;20547;-46
2022/07/08 09:45:39;;;;;;;19.20;3.78;;;;;;;19.77;50.20;102667.63;5072800;28;20068;-44
2022/07/08 09:48:08;;;;;;;14.30;2.70;;;;;;;19.71;49.63;102667.25;5063798;28;20044;-45
2022/07/08 09:50:38;;;;;;;15.27;2.90;;;;;;;19.92;48.58;102674.03;5071296;28;20490;-45
2022/07/08 09:53:27;;;;;;;15.18;2.72;;;;;;;20.18;49.20;102667.59;5057255;28;20036;-45
2022/07/08 09:55:56;;;;;;;17.02;3.08;;;;;;;20.07;48.28;102676.88;5071792;28;20072;-48
2022/07/08 09:58:25;;;;;;;16.80;2.90;;;;;;;20.33;48.32;102669.38;5057700;28;20063;-46
2022/07/08 10:00:54;;;;;;;15.00;2.83;;;;;;;20.62;46.72;102673.38;5065151;28;20068;-48
2022/07/08 10:03:22;;;;;;;20.83;3.38;;;;;;;20.79;46.75;102667.91;5067705;28;20120;-48
2022/07/08 10:05:50;;;;;;;56.80;9.48;;;;;;;20.88;49.45;102656.06;5080266;28;20486;-49
2022/07/08 10:08:18;;;;;;;12.35;2.58;;;;;;;20.98;46.19;102661.28;5071686;28;20094;-48
2022/07/08 10:10:48;;;;;;;14.40;2.88;;;;;;;20.69;46.75;102660.88;5066133;28;20055;-47
2022/07/08 10:13:16;;;;;;;19.15;2.80;;;;;;;20.61;46.89;102666.31;5068245;28;20501;-46
2022/07/08 10:15:43;;;;;;;20.65;3.75;;;;;;;20.88;47.09;102658.78;5078218;28;20106;-46
2022/07/08 10:18:18;;;;;;;11.73;2.88;;;;;;;20.74;46.79;102660.38;5075371;28;20044;-45
2022/07/08 10:20:51;;;;;;;12.48;2.72;;;;;;;20.84;48.03;102663.69;5067110;28;20093;-47
2022/07/08 10:23:28;;;;;;;14.90;3.03;;;;;;;20.81;47.86;102660.50;5061435;28;20135;-47
2022/07/08 10:25:57;;;;;;;16.02;2.97;;;;;;;21.05;46.68;102652.28;5061556;28;20045;-46
2022/07/08 10:28:41;;;;;;;17.58;3.03;;;;;;;21.16;47.21;102655.63;5072246;28;20053;-44
2022/07/08 10:31:24;;;;;;;18.83;2.80;;;;;;;21.46;46.92;102659.31;5060107;28;20449;-46
2022/07/08 10:33:58;;;;;;;14.15;3.03;;;;;;;21.60;45.88;102663.91;5061341;28;20056;-47
2022/07/08 10:36:25;;;;;;;18.88;2.90;;;;;;;21.53;45.76;102654.84;5063475;28;20075;-45
2022/07/08 10:38:55;;;;;;;13.77;2.67;;;;;;;21.73;45.28;102660.59;5062295;28;20091;-44
2022/07/08 10:41:26;;;;;;;12.93;2.47;;;;;;;21.81;45.74;102663.25;5078972;28;20044;-44
2022/07/08 10:43:55;;;;;;;15.50;2.50;;;;;;;21.72;45.88;102663.47;5070113;28;20135;-45
2022/07/08 10:46:24;;;;;;;12.45;2.65;;;;;;;21.72;45.38;102663.47;5073816;28;20124;-44
2022/07/08 10:48:54;;;;;;;13.77;2.80;;;;;;;21.58;45.07;102659.72;5064815;28;20044;-44
2022/07/08 10:54:05;;;;;;;15.48;2.60;;;;;;;21.40;45.40;102654.59;5114800;27;20524;-43
2022/07/08 10:56:54;;;;;;;14.23;2.60;;;;;;;21.92;45.11;102661.09;5105404;28;20501;-44
2022/07/08 10:59:30;;;;;;;15.38;2.78;;;;;;;21.74;44.58;102658.75;5113531;28;20043;-43
2022/07/08 11:02:16;;;;;;;14.45;2.90;;;;;;;21.92;47.04;102658.41;5094418;28;20048;-45
2022/07/08 11:04:46;;;;;;;13.68;2.33;;;;;;;21.98;44.75;102650.41;5102028;28;20101;-44
2022/07/08 11:10:06;;;;;;;10.82;2.50;;;;;;;22.04;45.58;102654.25;5107065;27;20367;-45
2022/07/08 11:12:35;;;;;;;15.75;2.63;;;;;;;21.97;44.87;102650.59;5107544;28;20396;-45
2022/07/08 11:15:05;;;;;;;13.88;2.70;;;;;;;22.02;45.15;102640.09;5103329;28;20390;-46
2022/07/08 11:17:34;;;;;;;20.75;2.70;;;;;;;22.21;44.53;102649.50;5103228;28;20176;-45
2022/07/08 11:20:07;;;;;;;14.15;3.00;;;;;;;22.43;44.70;102653.19;5102703;28;20135;-47
2022/07/08 11:22:37;;;;;;;15.13;3.05;;;;;;;22.46;45.14;102651.97;5093617;28;20105;-44
2022/07/08 11:25:07;;;;;;;55.22;22.45;;;;;;;22.49;43.80;102657.03;5103481;28;20048;-45
2022/07/08 11:27:34;;;;;;;20.58;3.10;;;;;;;22.49;44.36;102648.91;5117006;28;20188;-47
2022/07/08 11:30:06;;;;;;;17.75;2.75;;;;;;;22.66;44.22;102650.38;5103813;28;20048;-47
2022/07/08 11:32:32;;;;;;;;;;;;;;;22.64;44.05;102644.31;5101263;28;20040;-45